Time;durP1;ratioP1;P1;durP2;ratioP2;P2;SDS_P1;SDS_P2;PMS_P1;PMS_P2;Temp;Humidity;BMP_temperature;BMP_pressure;BME280_temperature;BME280_humidity;BME280_pressure;Samples;Min_cycle;Max_cycle;Signal;HPM_P1;HPM_P2
2022/08/02 00:00:09;;;;;;;2.10;1.15;;;;;;;23.98;42.79;99309.97;5133194;27;20023;-79
2022/08/02 00:02:35;;;;;;;1.30;0.90;;;;;;;24.36;42.42;99329.50;5133026;27;20026;-79
2022/08/02 00:05:00;;;;;;;2.75;0.73;;;;;;;24.10;42.43;99297.41;5132832;27;20027;-79
2022/08/02 00:07:26;;;;;;;1.60;0.85;;;;;;;24.26;42.47;99311.38;5113883;27;20035;-80
2022/08/02 00:09:51;;;;;;;2.08;1.20;;;;;;;24.29;42.55;99318.38;5132444;27;20060;-81
2022/08/02 00:12:17;;;;;;;1.45;0.95;;;;;;;24.37;42.38;99315.91;5132947;27;20106;-80
2022/08/02 00:14:42;;;;;;;2.60;0.80;;;;;;;24.23;42.40;99308.06;5132853;27;20496;-78
2022/08/02 00:17:08;;;;;;;1.05;0.80;;;;;;;24.04;43.28;99335.59;5132818;27;20035;-78
2022/08/02 00:19:34;;;;;;;2.33;1.27;;;;;;;23.95;43.26;99312.91;5132731;27;20055;-78
2022/08/02 00:21:59;;;;;;;1.73;0.98;;;;;;;23.96;43.14;99311.94;5132594;27;20514;-79
2022/08/02 00:24:25;;;;;;;0.77;0.70;;;;;;;23.93;43.49;99317.56;5132336;27;20118;-79
2022/08/02 00:26:50;;;;;;;0.80;0.60;;;;;;;23.50;43.86;99277.69;5132352;27;20066;-79
2022/08/02 00:29:16;;;;;;;1.52;0.90;;;;;;;23.59;44.14;99326.31;5132683;27;20027;-78
2022/08/02 00:31:41;;;;;;;1.10;1.00;;;;;;;23.58;44.49;99323.72;5132309;27;20479;-79
2022/08/02 00:34:07;;;;;;;0.70;0.70;;;;;;;23.55;44.46;99318.56;5132739;27;20071;-79
2022/08/02 00:36:32;;;;;;;1.48;1.13;;;;;;;23.40;44.65;99313.38;5132346;27;20031;-79
2022/08/02 00:38:58;;;;;;;2.65;1.50;;;;;;;23.49;44.56;99337.88;5132079;27;20503;-80
2022/08/02 00:41:23;;;;;;;0.85;0.77;;;;;;;23.30;44.99;99314.16;5132316;27;20062;-82
2022/08/02 00:43:51;;;;;;;1.10;1.00;;;;;;;23.06;45.40;99296.13;5132352;27;20031;-79
2022/08/02 00:46:17;;;;;;;1.33;0.95;;;;;;;23.19;45.48;99344.56;5132352;27;20031;-79
2022/08/02 00:48:43;;;;;;;1.15;0.93;;;;;;;23.21;45.31;99330.00;5132146;27;20035;-79
2022/08/02 00:51:10;;;;;;;1.15;0.90;;;;;;;23.19;45.17;99321.19;5131959;27;20557;-79
2022/08/02 00:53:35;;;;;;;1.02;0.77;;;;;;;23.24;45.11;99319.00;5131903;27;20056;-79
2022/08/02 00:56:01;;;;;;;1.40;1.00;;;;;;;23.22;44.92;99320.13;5132408;27;20066;-79
2022/08/02 00:58:27;;;;;;;2.50;1.05;;;;;;;23.12;44.64;99295.69;5132404;27;20034;-80
2022/08/02 01:00:53;;;;;;;1.30;0.85;;;;;;;23.26;44.71;99302.75;5132216;27;20034;-79
2022/08/02 01:03:18;;;;;;;1.77;0.93;;;;;;;23.33;44.38;99319.31;5131895;27;20023;-79
2022/08/02 01:05:44;;;;;;;2.55;1.40;;;;;;;23.23;44.30;99297.59;5131767;27;20499;-79
2022/08/02 01:08:10;;;;;;;1.20;0.80;;;;;;;23.44;43.89;99305.06;5131736;27;20091;-80
2022/08/02 01:10:36;;;;;;;0.85;0.80;;;;;;;23.62;43.41;99318.97;5131977;28;20117;-79
2022/08/02 01:13:01;;;;;;;1.05;0.75;;;;;;;23.53;43.69;99315.16;5132217;28;20578;-79
2022/08/02 01:15:27;;;;;;;1.15;0.77;;;;;;;23.44;43.88;99287.09;5132200;28;20034;-80
2022/08/02 01:18:06;;;;;;;1.15;0.90;;;;;;;23.39;44.02;99297.34;5132063;28;20047;-79
2022/08/02 01:20:57;;;;;;;0.80;0.80;;;;;;;23.46;44.32;99317.41;5131714;28;20152;-79
2022/08/02 01:23:31;;;;;;;1.55;1.08;;;;;;;23.40;44.50;99317.88;5131709;28;20054;-79
2022/08/02 01:26:27;;;;;;;0.52;0.52;;;;;;;23.32;44.60;99322.97;5131783;28;20480;-82
2022/08/02 01:29:29;;;;;;;0.95;0.88;;;;;;;23.07;45.34;99322.06;5131641;28;20024;-80
2022/08/02 01:32:02;;;;;;;1.48;0.82;;;;;;;22.97;45.32;99302.16;5078016;28;20527;-80
2022/08/02 01:35:06;;;;;;;0.77;0.68;;;;;;;22.95;45.49;99320.25;5131550;28;20424;-81
2022/08/02 01:37:45;;;;;;;1.73;0.93;;;;;;;22.67;45.86;99293.50;5108907;28;20051;-80
2022/08/02 01:40:16;;;;;;;2.13;0.88;;;;;;;22.77;45.78;99298.22;5131462;28;20031;-80
2022/08/02 01:42:48;;;;;;;1.92;0.80;;;;;;;22.93;45.72;99314.13;5131548;28;20138;-79
2022/08/02 01:45:16;;;;;;;1.35;1.25;;;;;;;22.83;45.74;99295.09;5113215;28;20502;-80
2022/08/02 01:47:44;;;;;;;1.35;0.93;;;;;;;22.85;46.14;99290.50;5131326;28;20031;-79
2022/08/02 01:50:13;;;;;;;1.95;0.98;;;;;;;22.76;46.22;99307.28;5131638;28;20054;-79
2022/08/02 01:52:46;;;;;;;2.45;1.65;;;;;;;22.83;45.91;99295.09;5131760;28;20038;-79
2022/08/02 01:55:22;;;;;;;1.13;0.82;;;;;;;22.83;46.11;99297.78;5131189;28;20027;-79
2022/08/02 01:57:54;;;;;;;1.55;1.02;;;;;;;22.96;46.15;99298.63;5131560;28;20454;-79
2022/08/02 02:00:23;;;;;;;2.70;1.20;;;;;;;22.73;46.06;99277.94;5131148;28;20036;-79
2022/08/02 02:02:51;;;;;;;1.48;1.00;;;;;;;22.67;45.85;99282.75;5131417;28;20051;-79
2022/08/02 02:05:19;;;;;;;1.95;1.50;;;;;;;22.60;46.62;99292.25;5131297;28;20065;-79
2022/08/02 02:07:48;;;;;;;2.20;1.38;;;;;;;22.58;46.71;99279.88;5131283;28;20091;-79
2022/08/02 02:10:18;;;;;;;3.75;1.63;;;;;;;22.77;46.27;99298.22;5131449;28;20030;-79
2022/08/02 02:12:50;;;;;;;5.68;1.90;;;;;;;22.68;46.13;99278.28;5131082;28;20489;-79
2022/08/02 02:15:16;;;;;;;1.52;1.00;;;;;;;22.85;45.67;99282.44;5133201;27;20114;-79
2022/08/02 02:17:44;;;;;;;1.83;1.30;;;;;;;22.92;45.88;99282.84;5135324;27;20047;-79
2022/08/02 02:20:15;;;;;;;1.90;1.15;;;;;;;22.91;45.35;99290.06;5135176;27;20406;-79
2022/08/02 02:22:41;;;;;;;2.78;1.50;;;;;;;22.98;45.25;99296.69;5135028;27;20425;-79
2022/08/02 02:25:12;;;;;;;2.20;1.08;;;;;;;22.91;45.26;99273.03;5134439;27;20160;-80
2022/08/02 02:27:45;;;;;;;2.67;1.48;;;;;;;23.10;45.21;99308.41;5134976;27;20035;-79
2022/08/02 02:30:11;;;;;;;2.08;1.83;;;;;;;22.89;45.15;99290.16;5134733;27;20027;-79
2022/08/02 02:32:39;;;;;;;2.22;1.30;;;;;;;23.06;44.98;99309.56;5134836;27;20492;-79
2022/08/02 02:35:06;;;;;;;2.63;1.17;;;;;;;22.77;45.37;99295.53;5134751;27;20064;-79
2022/08/02 02:37:34;;;;;;;1.70;1.10;;;;;;;22.62;45.31;99281.41;5134590;27;20049;-82
2022/08/02 02:40:01;;;;;;;1.92;1.27;;;;;;;22.65;46.12;99303.53;5134487;27;20091;-80
2022/08/02 02:42:30;;;;;;;1.15;0.85;;;;;;;22.49;46.10;99293.03;5134621;27;20038;-80
2022/08/02 02:44:56;;;;;;;2.03;1.35;;;;;;;22.55;46.37;99306.97;5134635;27;20024;-79
2022/08/02 02:47:22;;;;;;;1.55;1.00;;;;;;;22.68;45.90;99297.09;5134804;27;20106;-80
2022/08/02 02:49:50;;;;;;;2.63;1.35;;;;;;;22.31;47.16;99291.63;5134312;27;20031;-79
2022/08/02 02:52:17;;;;;;;1.08;0.98;;;;;;;22.31;46.97;99299.69;5134276;27;20023;-80
2022/08/02 02:54:46;;;;;;;1.55;1.08;;;;;;;22.28;47.09;99295.34;5134331;27;20032;-79
2022/08/02 02:57:13;;;;;;;2.08;1.30;;;;;;;22.22;47.12;99282.34;5134493;27;20024;-79
2022/08/02 02:59:38;;;;;;;2.85;1.83;;;;;;;22.12;47.28;99300.94;5134507;27;20084;-78
2022/08/02 03:02:05;;;;;;;1.95;1.48;;;;;;;22.06;47.94;99292.41;5147981;27;20030;-82
2022/08/02 03:04:31;;;;;;;2.47;1.17;;;;;;;22.12;47.32;99292.00;5155010;27;20030;-79
2022/08/02 03:06:59;;;;;;;1.70;1.08;;;;;;;22.31;47.54;99311.28;5146269;27;20031;-79
2022/08/02 03:09:25;;;;;;;1.40;1.05;;;;;;;22.04;47.87;99295.22;5133817;27;20031;-79
2022/08/02 03:11:52;;;;;;;1.25;1.15;;;;;;;21.99;48.38;99295.53;5134523;27;20118;-79
2022/08/02 03:14:18;;;;;;;1.92;1.20;;;;;;;22.02;47.95;99294.47;5133753;27;20511;-81
2022/08/02 03:16:46;;;;;;;1.35;1.10;;;;;;;22.29;47.74;99325.75;5133987;27;20137;-79
2022/08/02 03:19:12;;;;;;;1.88;1.38;;;;;;;22.20;47.85;99311.16;5133578;27;20070;-79
2022/08/02 03:21:37;;;;;;;1.50;1.10;;;;;;;22.36;47.43;99313.66;5114691;27;20416;-79
2022/08/02 03:24:03;;;;;;;2.25;1.02;;;;;;;22.37;47.50;99325.25;5133931;27;20031;-78
2022/08/02 03:26:29;;;;;;;1.95;1.40;;;;;;;22.09;48.18;99298.47;5133815;27;20039;-79
2022/08/02 03:28:54;;;;;;;1.58;1.23;;;;;;;22.29;48.08;99331.13;5133620;27;20035;-79
2022/08/02 03:31:20;;;;;;;1.45;1.20;;;;;;;21.99;48.89;99327.75;5133646;27;20049;-79
2022/08/02 03:33:46;;;;;;;1.50;1.08;;;;;;;21.76;49.13;99321.25;5133546;27;20023;-79
2022/08/02 03:36:15;;;;;;;1.42;1.23;;;;;;;21.55;49.98;99312.84;5133192;27;20405;-79
2022/08/02 03:38:42;;;;;;;2.75;1.42;;;;;;;21.55;50.40;99331.63;5133226;27;20034;-79
2022/08/02 03:41:11;;;;;;;1.10;1.00;;;;;;;21.08;51.33;99319.44;5114631;27;20051;-79
2022/08/02 03:43:38;;;;;;;3.28;2.00;;;;;;;21.33;50.89;99332.13;5133492;27;20023;-84
2022/08/02 03:46:06;;;;;;;1.27;1.05;;;;;;;21.63;50.23;99328.44;5133484;27;20107;-79
2022/08/02 03:48:32;;;;;;;1.42;1.20;;;;;;;21.79;49.73;99347.91;5132922;27;20034;-80
2022/08/02 03:50:59;;;;;;;2.95;1.48;;;;;;;21.73;49.53;99328.66;5112861;28;20035;-79
2022/08/02 03:53:25;;;;;;;1.52;1.20;;;;;;;22.19;49.34;99360.44;5093748;28;20035;-79
2022/08/02 03:55:50;;;;;;;2.00;1.58;;;;;;;22.35;48.69;99344.16;5112525;28;20443;-79
2022/08/02 03:58:21;;;;;;;1.92;1.15;;;;;;;22.18;49.05;99356.03;5112936;28;20035;-79
2022/08/02 04:00:47;;;;;;;2.90;1.48;;;;;;;22.39;48.45;99358.25;5112325;28;20035;-79
2022/08/02 04:03:14;;;;;;;2.20;1.17;;;;;;;22.45;48.25;99344.41;5112284;28;20551;-79
2022/08/02 04:05:40;;;;;;;5.03;1.48;;;;;;;22.95;47.32;99355.22;5112450;28;20024;-80
2022/08/02 04:08:05;;;;;;;1.50;1.40;;;;;;;23.10;47.02;99358.69;5112310;28;20445;-79
2022/08/02 04:11:29;;;;;;;1.45;0.98;;;;;;;23.23;47.37;99365.75;5112296;28;20119;-78
2022/08/02 04:13:18;;;;;;;2.42;1.65;;;;;;;23.14;47.49;99341.31;5111956;28;20089;-79
2022/08/02 04:15:45;;;;;;;2.63;1.52;;;;;;;23.21;47.56;99364.13;5112170;28;20055;-79
2022/08/02 04:18:11;;;;;;;1.42;1.10;;;;;;;23.28;47.92;99364.53;5111778;28;20043;-79
2022/08/02 04:20:38;;;;;;;2.22;1.25;;;;;;;23.06;48.00;99333.78;5112333;28;20035;-79
2022/08/02 04:23:06;;;;;;;1.60;1.17;;;;;;;23.42;47.78;99364.41;5111973;28;20028;-79
2022/08/02 04:25:34;;;;;;;1.33;1.20;;;;;;;23.34;47.28;99334.47;5111743;28;20030;-78
2022/08/02 04:28:01;;;;;;;1.50;1.15;;;;;;;23.58;47.16;99366.81;5112021;28;20489;-78
2022/08/02 04:30:28;;;;;;;2.10;1.70;;;;;;;23.48;46.67;99352.28;5111728;28;20035;-79
2022/08/02 04:32:54;;;;;;;1.65;1.10;;;;;;;23.61;46.84;99371.97;5112094;28;20503;-79
2022/08/02 04:35:19;;;;;;;2.75;1.60;;;;;;;23.80;46.68;99368.75;5111899;28;20028;-79
2022/08/02 04:37:45;;;;;;;1.77;1.20;;;;;;;24.03;45.27;99377.81;5111309;28;20454;-79
2022/08/02 04:40:12;;;;;;;1.58;1.42;;;;;;;24.20;44.82;99383.75;5093509;28;20501;-83
2022/08/02 04:42:38;;;;;;;2.20;1.50;;;;;;;24.22;44.79;99379.09;5111942;28;20027;-79
2022/08/02 04:45:09;;;;;;;2.40;1.40;;;;;;;24.41;44.37;99381.25;5111339;28;20386;-79
2022/08/02 04:47:35;;;;;;;2.97;1.60;;;;;;;24.48;44.30;99377.06;5111761;28;20042;-80
2022/08/02 04:50:01;;;;;;;1.23;1.08;;;;;;;24.54;44.14;99365.81;5111637;28;20035;-79
2022/08/02 04:52:27;;;;;;;2.00;1.52;;;;;;;24.56;44.13;99369.28;5111666;28;20024;-79
2022/08/02 04:54:52;;;;;;;2.03;1.60;;;;;;;24.43;44.74;99382.81;5111478;28;20023;-80
2022/08/02 05:00:08;;;;;;;1.88;1.60;;;;;;;24.23;44.12;99353.88;5111817;28;20054;-79
2022/08/02 05:02:34;;;;;;;1.88;1.30;;;;;;;24.52;43.98;99362.38;5111312;28;20031;-79
2022/08/02 05:05:00;;;;;;;2.00;1.48;;;;;;;24.57;43.63;99368.31;5111571;28;20035;-79
2022/08/02 05:07:25;;;;;;;2.17;0.98;;;;;;;24.59;42.66;99357.41;5111329;28;20405;-79
2022/08/02 05:09:51;;;;;;;1.17;1.00;;;;;;;24.80;42.06;99382.66;5111269;28;20042;-80
2022/08/02 05:12:16;;;;;;;1.25;1.15;;;;;;;24.84;42.07;99367.13;5111351;28;20467;-79
2022/08/02 05:14:42;;;;;;;0.68;0.57;;;;;;;25.00;41.52;99382.94;5111611;28;20028;-79
2022/08/02 05:17:07;;;;;;;1.80;1.15;;;;;;;25.10;41.20;99392.00;5111281;28;20594;-79
2022/08/02 05:19:33;;;;;;;1.95;1.60;;;;;;;25.13;40.86;99380.09;5111490;28;20111;-79
2022/08/02 05:21:58;;;;;;;1.75;1.60;;;;;;;25.47;40.36;99394.47;5111212;28;20030;-80
2022/08/02 05:24:24;;;;;;;1.90;1.08;;;;;;;25.48;39.83;99379.09;5111009;28;20070;-79
2022/08/02 05:26:49;;;;;;;0.80;0.70;;;;;;;25.43;39.02;99368.69;5111289;28;20023;-80
2022/08/02 05:29:15;;;;;;;1.52;1.00;;;;;;;25.59;39.92;99367.41;5111119;28;20028;-81
2022/08/02 05:31:41;;;;;;;1.27;0.90;;;;;;;26.00;38.60;99357.72;5111588;28;20073;-79
2022/08/02 05:34:06;;;;;;;0.93;0.85;;;;;;;26.58;38.68;99381.59;5111628;28;20500;-82
2022/08/02 05:36:32;;;;;;;7.70;1.48;;;;;;;26.92;37.46;99384.09;5111064;28;20031;-79
2022/08/02 05:38:57;;;;;;;0.80;0.80;;;;;;;27.05;37.36;99389.25;5110921;28;20020;-80
2022/08/02 05:41:23;;;;;;;1.00;0.90;;;;;;;27.45;36.63;99400.13;5111051;28;20107;-79
2022/08/02 05:43:48;;;;;;;4.13;2.45;;;;;;;27.68;36.62;99383.63;5111153;28;20032;-80
2022/08/02 05:46:14;;;;;;;1.88;1.38;;;;;;;27.76;36.78;99388.34;5111353;28;20027;-79
2022/08/02 05:48:39;;;;;;;3.45;1.38;;;;;;;27.76;35.83;99386.50;5110848;28;20035;-79
2022/08/02 05:51:09;;;;;;;1.70;1.40;;;;;;;27.81;36.16;99381.50;5113977;28;20031;-79
2022/08/02 05:53:55;;;;;;;1.10;0.95;;;;;;;27.48;35.94;99372.78;5114606;28;20118;-79
2022/08/02 05:56:37;;;;;;;1.48;0.98;;;;;;;27.88;35.25;99389.91;5115205;28;20035;-79
2022/08/02 05:59:12;;;;;;;1.23;0.98;;;;;;;27.44;35.58;99378.59;5114900;28;20027;-79
2022/08/02 06:01:39;;;;;;;;;;;;;;;27.78;34.67;99399.91;5115323;28;20020;-79
2022/08/02 06:04:07;;;;;;;1.70;1.10;;;;;;;27.58;33.56;99374.66;5114685;28;19908;-79
2022/08/02 06:06:34;;;;;;;0.68;0.68;;;;;;;27.36;35.14;99400.09;5114767;28;20032;-78
2022/08/02 06:09:03;;;;;;;0.73;0.68;;;;;;;27.30;34.55;99396.06;5114448;28;20550;-79
2022/08/02 06:11:42;;;;;;;0.93;0.85;;;;;;;27.33;34.31;99382.28;5114624;28;20023;-80
2022/08/02 06:14:08;;;;;;;1.65;1.00;;;;;;;27.55;36.02;99394.72;5114498;28;20134;-79
2022/08/02 06:16:36;;;;;;;1.98;0.93;;;;;;;27.67;34.48;99399.03;5114264;28;20084;-80
2022/08/02 06:19:03;;;;;;;3.10;0.90;;;;;;;27.89;34.39;99398.94;5114775;28;20044;-80
2022/08/02 06:21:28;;;;;;;1.67;1.58;;;;;;;28.13;34.95;99399.41;5114655;28;20024;-79
2022/08/02 06:23:54;;;;;;;0.80;0.80;;;;;;;28.19;32.81;99396.13;5114114;28;20035;-79
2022/08/02 06:26:21;;;;;;;1.17;0.82;;;;;;;28.19;34.02;99411.50;5114366;28;20500;-80
2022/08/02 06:28:48;;;;;;;1.08;0.98;;;;;;;28.16;33.72;99393.69;5114230;28;20043;-80
2022/08/02 06:31:14;;;;;;;1.38;0.73;;;;;;;28.51;33.73;99410.34;5114058;28;20027;-80
2022/08/02 06:33:39;;;;;;;2.03;1.30;;;;;;;28.56;34.47;99384.50;5114248;28;20040;-80
2022/08/02 06:36:34;;;;;;;1.80;1.33;;;;;;;29.07;31.81;99417.66;5114049;28;20020;-80
2022/08/02 06:39:04;;;;;;;;;;;;;;;28.78;32.99;99427.72;5114417;28;20023;-80
2022/08/02 06:41:39;;;;;;;0.98;0.70;;;;;;;29.07;32.89;99420.38;5113953;28;19912;-79
2022/08/02 06:44:05;;;;;;;0.80;0.70;;;;;;;28.97;32.18;99389.69;5114327;28;20023;-79
2022/08/02 06:46:31;;;;;;;2.00;1.05;;;;;;;29.08;31.92;99394.06;5113930;28;20040;-79
2022/08/02 06:48:59;;;;;;;1.00;0.80;;;;;;;29.25;32.50;99415.03;5114074;28;20042;-80
2022/08/02 06:51:25;;;;;;;1.40;0.68;;;;;;;29.84;30.77;99395.69;5113868;28;20035;-80
2022/08/02 06:53:50;;;;;;;1.33;0.82;;;;;;;29.28;32.19;99409.28;5114149;28;20542;-79
2022/08/02 06:56:16;;;;;;;0.93;0.63;;;;;;;29.11;31.74;99394.63;5113854;28;20044;-79
2022/08/02 06:58:41;;;;;;;0.75;0.75;;;;;;;29.17;33.05;99404.03;5113768;28;20032;-79
2022/08/02 07:01:08;;;;;;;2.42;1.40;;;;;;;29.61;32.16;99407.00;5094749;28;20036;-79
2022/08/02 07:03:35;;;;;;;1.45;1.10;;;;;;;29.42;33.00;99383.47;5113792;28;20024;-79
2022/08/02 07:06:01;;;;;;;0.57;0.57;;;;;;;29.61;31.60;99403.41;5113460;28;20073;-79
2022/08/02 07:08:30;;;;;;;1.48;1.20;;;;;;;29.53;32.89;99416.91;5113326;28;20028;-80
2022/08/02 07:10:57;;;;;;;0.90;0.70;;;;;;;29.60;30.59;99377.25;5113322;28;20084;-81
2022/08/02 07:13:22;;;;;;;2.40;1.83;;;;;;;30.31;32.19;99395.44;5113487;28;20031;-84
2022/08/02 07:15:48;;;;;;;1.70;0.75;;;;;;;29.68;30.83;99393.63;5113883;28;20024;-79
2022/08/02 07:18:14;;;;;;;1.90;0.95;;;;;;;29.95;30.68;99402.75;5113179;28;20055;-79
2022/08/02 07:20:44;;;;;;;1.27;0.70;;;;;;;30.31;29.87;99403.59;5113355;28;20059;-79
2022/08/02 07:23:09;;;;;;;1.05;0.90;;;;;;;30.17;30.77;99385.97;5113259;28;20030;-79
2022/08/02 07:25:35;;;;;;;0.88;0.73;;;;;;;30.57;29.90;99408.28;5112689;28;20031;-79
2022/08/02 07:28:01;;;;;;;0.77;0.75;;;;;;;30.83;31.22;99407.41;5113332;28;20032;-79
2022/08/02 07:30:27;;;;;;;0.52;0.52;;;;;;;30.45;29.50;99404.09;5113271;28;20074;-80
2022/08/02 07:32:52;;;;;;;2.15;1.08;;;;;;;30.13;29.66;99392.75;5113226;28;20023;-80
2022/08/02 07:35:19;;;;;;;2.45;1.00;;;;;;;30.55;30.93;99399.41;5113191;28;20019;-79
2022/08/02 07:37:45;;;;;;;1.35;0.70;;;;;;;30.91;29.32;99393.88;5112793;28;20481;-80
2022/08/02 07:40:12;;;;;;;1.15;0.90;;;;;;;30.75;30.43;99391.88;5112512;28;20039;-80
2022/08/02 07:42:38;;;;;;;0.95;0.73;;;;;;;30.49;31.06;99386.44;5112815;28;20062;-81
2022/08/02 07:45:04;;;;;;;1.23;0.95;;;;;;;31.14;30.41;99386.00;5112618;28;20156;-81
2022/08/02 07:47:29;;;;;;;1.48;1.23;;;;;;;31.38;28.72;99400.75;5112941;28;20082;-81
2022/08/02 07:49:55;;;;;;;2.03;1.63;;;;;;;31.05;29.95;99400.59;5112846;28;20028;-84
2022/08/02 07:52:20;;;;;;;1.33;0.98;;;;;;;31.62;28.67;99390.97;5094383;28;20031;-80
2022/08/02 07:54:46;;;;;;;1.05;0.60;;;;;;;31.91;28.80;99396.81;5112348;28;20035;-79
2022/08/02 07:57:12;;;;;;;1.00;0.73;;;;;;;31.71;29.17;99393.53;5112795;28;20114;-81
2022/08/02 07:59:37;;;;;;;1.13;0.65;;;;;;;32.18;30.55;99381.19;5112345;28;20410;-81
2022/08/02 08:02:03;;;;;;;1.08;0.63;;;;;;;32.23;28.71;99391.59;5112557;28;20122;-81
2022/08/02 08:04:29;;;;;;;2.83;0.82;;;;;;;32.19;28.75;99384.75;5112735;28;20827;-81
2022/08/02 08:06:55;;;;;;;1.05;0.80;;;;;;;32.66;27.13;99390.38;5112412;28;20504;-80
2022/08/02 08:09:20;;;;;;;0.80;0.68;;;;;;;32.49;29.16;99391.41;5111994;28;20039;-81
2022/08/02 08:11:46;;;;;;;1.02;0.80;;;;;;;32.34;28.68;99368.56;5111942;28;20038;-81
2022/08/02 08:14:11;;;;;;;1.23;0.88;;;;;;;33.04;26.14;99391.66;5112018;28;20028;-81
2022/08/02 08:16:37;;;;;;;1.05;0.80;;;;;;;32.36;27.20;99393.81;5112710;28;20028;-81
2022/08/02 08:19:03;;;;;;;0.85;0.50;;;;;;;32.68;28.15;99406.59;5112072;28;20039;-81
2022/08/02 08:21:29;;;;;;;0.82;0.70;;;;;;;32.90;26.98;99393.25;5112253;28;20087;-81
2022/08/02 08:23:55;;;;;;;0.82;0.63;;;;;;;32.88;28.12;99379.75;5111988;28;20027;-81
2022/08/02 08:26:21;;;;;;;0.63;0.52;;;;;;;32.07;27.99;99398.72;5111763;28;20055;-81
2022/08/02 08:28:46;;;;;;;1.63;0.95;;;;;;;32.20;30.22;99370.97;5093940;28;20070;-81
2022/08/02 08:31:12;;;;;;;0.90;0.70;;;;;;;32.92;28.55;99404.84;5112038;28;20073;-81
2022/08/02 08:33:37;;;;;;;0.70;0.57;;;;;;;32.44;27.70;99393.78;5111918;28;20059;-81
2022/08/02 08:36:03;;;;;;;1.40;0.73;;;;;;;32.24;27.92;99402.34;5112032;28;20031;-81
2022/08/02 08:38:29;;;;;;;0.55;0.55;;;;;;;32.21;29.37;99404.53;5111412;28;20042;-81
2022/08/02 08:40:54;;;;;;;2.17;0.60;;;;;;;32.57;28.44;99391.41;5112157;28;20028;-81
2022/08/02 08:43:20;;;;;;;5.68;0.80;;;;;;;32.21;26.73;99380.84;5112058;28;20019;-81
2022/08/02 08:45:47;;;;;;;0.38;0.38;;;;;;;32.53;27.16;99403.69;5111798;28;20032;-82
2022/08/02 08:48:15;;;;;;;0.85;0.50;;;;;;;33.17;27.01;99378.31;5111815;28;20028;-81
2022/08/02 08:50:55;;;;;;;0.93;0.45;;;;;;;33.24;25.54;99409.38;5111773;28;20390;-82
2022/08/02 08:53:23;;;;;;;0.40;0.32;;;;;;;33.43;25.93;99388.13;5111250;28;20031;-81
2022/08/02 08:55:52;;;;;;;0.47;0.47;;;;;;;33.71;25.77;99364.75;5093583;28;20054;-80
2022/08/02 08:58:18;;;;;;;0.50;0.50;;;;;;;33.78;25.35;99369.50;5111411;28;20557;-80
2022/08/02 09:00:43;;;;;;;0.55;0.47;;;;;;;33.78;26.88;99388.63;5111452;28;20051;-80
2022/08/02 09:03:09;;;;;;;3.50;0.90;;;;;;;33.72;26.64;99380.13;5111493;28;20035;-81
2022/08/02 09:05:40;;;;;;;0.75;0.50;;;;;;;33.24;27.17;99390.25;5111227;28;20046;-82
2022/08/02 09:08:07;;;;;;;0.98;0.88;;;;;;;33.54;27.72;99374.91;5130564;27;20502;-81
2022/08/02 09:10:35;;;;;;;0.85;0.65;;;;;;;33.21;27.03;99398.78;5152709;27;20031;-83
2022/08/02 09:13:21;;;;;;;0.85;0.55;;;;;;;33.08;26.54;99385.69;5152851;27;20061;-81
2022/08/02 09:15:58;;;;;;;0.47;0.47;;;;;;;33.02;27.43;99370.81;5152396;27;20046;-82
2022/08/02 09:18:44;;;;;;;0.25;0.25;;;;;;;33.03;26.28;99368.97;5149412;27;20035;-81
2022/08/02 09:21:10;;;;;;;6.32;1.17;;;;;;;32.74;26.45;99370.41;5142460;27;20034;-82
2022/08/02 09:23:40;;;;;;;1.10;0.30;;;;;;;33.17;25.85;99379.16;5111971;28;20023;-82
2022/08/02 09:26:20;;;;;;;0.35;0.20;;;;;;;33.19;24.77;99388.03;5115428;28;20489;-83
2022/08/02 09:28:51;;;;;;;1.17;1.00;;;;;;;33.42;25.64;99378.22;5115423;28;20043;-82
2022/08/02 09:31:22;;;;;;;0.08;0.08;;;;;;;33.41;24.76;99377.34;5115539;28;20027;-82
2022/08/02 09:33:53;;;;;;;0.10;0.10;;;;;;;33.40;24.95;99362.00;5115772;28;20041;-81
2022/08/02 09:36:19;;;;;;;0.17;0.08;;;;;;;33.81;24.57;99380.06;5115150;28;20576;-81
2022/08/02 09:39:01;;;;;;;0.30;0.30;;;;;;;33.85;24.65;99384.16;5115162;28;20063;-82
2022/08/02 09:41:33;;;;;;;1.02;0.88;;;;;;;33.95;24.81;99357.41;5115286;28;20028;-81
2022/08/02 09:44:00;;;;;;;0.90;0.63;;;;;;;33.85;25.33;99371.31;5115789;28;20061;-80
2022/08/02 09:46:29;;;;;;;0.90;0.60;;;;;;;34.00;24.39;99352.25;5115475;28;20419;-81
2022/08/02 09:48:58;;;;;;;0.38;0.20;;;;;;;33.93;24.52;99380.50;5114965;28;20024;-81
2022/08/02 09:51:27;;;;;;;0.52;0.40;;;;;;;33.42;25.32;99364.56;5114902;28;20031;-80
2022/08/02 09:53:54;;;;;;;0.80;0.60;;;;;;;33.32;25.70;99364.75;5114657;28;20030;-80
2022/08/02 09:56:22;;;;;;;0.82;0.80;;;;;;;34.03;26.18;99364.69;5114950;28;20039;-80
2022/08/02 09:58:50;;;;;;;0.77;0.45;;;;;;;33.82;24.61;99362.63;5115033;28;20039;-80
2022/08/02 10:01:16;;;;;;;1.20;0.63;;;;;;;34.20;25.07;99362.66;5114958;28;20027;-80
2022/08/02 10:03:54;;;;;;;1.00;0.38;;;;;;;34.32;24.29;99361.22;5114878;28;20040;-80
2022/08/02 10:06:20;;;;;;;1.95;0.82;;;;;;;34.26;24.36;99359.22;5115132;28;20034;-80
2022/08/02 10:08:46;;;;;;;2.35;0.80;;;;;;;33.61;26.20;99366.81;5114506;28;20032;-81
2022/08/02 10:11:13;;;;;;;1.10;0.98;;;;;;;33.53;26.11;99340.38;5114629;28;20031;-81
2022/08/02 10:13:38;;;;;;;2.05;1.40;;;;;;;33.62;25.74;99356.75;5115033;28;20092;-82
2022/08/02 10:16:05;;;;;;;0.82;0.57;;;;;;;33.23;27.08;99360.38;5126949;27;20123;-81
2022/08/02 10:33:06;;;;;;;3.38;0.50;;;;;;;33.66;25.61;99322.53;5070998;27;20062;-80
2022/08/02 10:35:38;;;;;;;0.40;0.35;;;;;;;34.26;25.78;99326.38;5134124;27;20031;-79
2022/08/02 10:38:07;;;;;;;0.75;0.60;;;;;;;34.01;25.57;99323.00;5134900;27;20043;-80
2022/08/02 10:40:42;;;;;;;0.40;0.40;;;;;;;33.74;26.28;99352.59;5134678;27;20035;-80
2022/08/02 10:43:07;;;;;;;0.93;0.50;;;;;;;33.51;26.13;99350.66;5115930;27;20027;-81
2022/08/02 10:45:33;;;;;;;0.30;0.30;;;;;;;33.37;26.07;99319.47;5134400;27;20048;-80
2022/08/02 10:48:11;;;;;;;1.30;0.82;;;;;;;33.25;26.33;99325.53;5134686;27;20031;-81
2022/08/02 10:50:45;;;;;;;1.52;0.40;;;;;;;33.84;26.58;99347.72;5134432;27;20046;-81
2022/08/02 10:53:33;;;;;;;0.30;0.30;;;;;;;34.32;24.55;99346.69;5134598;27;20023;-82
2022/08/02 10:56:01;;;;;;;0.20;0.20;;;;;;;34.14;25.27;99328.69;5134238;27;20042;-81
2022/08/02 10:58:31;;;;;;;0.70;0.43;;;;;;;33.82;24.79;99336.13;5134492;27;20031;-81
2022/08/02 11:00:57;;;;;;;0.40;0.20;;;;;;;33.36;25.58;99334.16;5134265;27;20050;-80
2022/08/02 11:03:29;;;;;;;0.95;0.60;;;;;;;33.49;25.81;99350.00;5134153;27;20023;-80
2022/08/02 11:06:12;;;;;;;0.75;0.60;;;;;;;33.69;25.08;99342.19;5134135;27;20557;-80
2022/08/02 11:08:38;;;;;;;3.78;1.75;;;;;;;33.76;25.27;99322.34;5134159;27;20023;-80
2022/08/02 11:11:10;;;;;;;0.45;0.32;;;;;;;33.81;24.92;99342.63;5133986;27;20024;-80
2022/08/02 11:13:58;;;;;;;0.88;0.50;;;;;;;33.71;25.48;99336.53;5134030;27;20056;-79
2022/08/02 11:16:55;;;;;;;0.52;0.52;;;;;;;33.74;25.17;99333.47;5133797;27;20030;-81
2022/08/02 11:19:27;;;;;;;0.35;0.35;;;;;;;33.78;24.48;99306.59;5133586;27;20023;-80
2022/08/02 11:22:18;;;;;;;0.40;0.40;;;;;;;34.03;24.95;99319.06;5133889;27;20027;-80
2022/08/02 11:24:43;;;;;;;0.55;0.55;;;;;;;33.35;24.55;99304.28;5133752;27;20118;-80
2022/08/02 11:27:17;;;;;;;0.40;0.40;;;;;;;33.55;24.63;99301.94;5133611;27;20120;-81
2022/08/02 11:29:44;;;;;;;0.82;0.70;;;;;;;33.94;25.65;99301.00;5133835;27;20066;-81
2022/08/02 11:32:23;;;;;;;0.55;0.47;;;;;;;34.18;24.66;99304.53;5133716;27;20502;-81
2022/08/02 11:34:52;;;;;;;0.30;0.30;;;;;;;34.02;24.62;99289.13;5133574;27;20074;-80
2022/08/02 11:37:34;;;;;;;0.32;0.32;;;;;;;33.85;24.00;99280.22;5133553;27;20035;-80
2022/08/02 11:40:00;;;;;;;0.40;0.40;;;;;;;33.98;25.31;99305.06;5133423;27;20027;-79
2022/08/02 11:42:33;;;;;;;1.65;0.57;;;;;;;33.95;26.35;99310.88;5133508;27;20034;-80
2022/08/02 11:44:58;;;;;;;3.20;2.10;;;;;;;33.82;24.91;99292.38;5133408;27;20070;-80
2022/08/02 11:47:24;;;;;;;0.85;0.75;;;;;;;34.14;25.68;99308.69;5132307;27;20063;-80
2022/08/02 11:49:50;;;;;;;0.60;0.60;;;;;;;34.16;24.88;99306.63;5133257;27;20027;-80
2022/08/02 11:52:15;;;;;;;0.65;0.65;;;;;;;33.90;26.08;99281.34;5133311;27;20530;-81
2022/08/02 11:54:42;;;;;;;2.60;2.40;;;;;;;34.05;24.88;99303.28;5132996;27;20075;-80
2022/08/02 11:57:19;;;;;;;0.30;0.30;;;;;;;33.75;24.78;99305.06;5133189;27;20035;-80